Terminal Aerodrome Forecast
Issued by NWS

Home | Current Version | Previous Version | Graphics & Text | Print | Product List | Glossary On
Versions: 1 2 3 4 5 6 7 8 9 10 11 12 13 14 15 16 17 18 19 20 21 22 23 24
000
FTUS43 KICT 232340
TAFCNU
TAF
KCNU 232340Z 2400/2424 12009KT 4SM -TSRA SCT006 OVC011CB
      TEMPO 2400/2404 1 1/2SM +TSRA OVC006CB
     FM240400 15008KT 4SM -TSRA SCT005 OVC010CB
      TEMPO 2404/2408 1 1/2SM +TSRA OVC005CB
     FM240800 12007KT 6SM -TSRA OVC006CB
     FM241400 14008KT 5SM -SHRA OVC008
     FM241800 14009KT P6SM VCTS SCT020 OVC035CB=

USA.gov is the U.S. government's official web portal to all federal, state and local government web resources and services.